createdAt,value
2017-12-26T00:04:31.967Z,5.6
2017-12-26T00:21:08.055Z,5.6
2017-12-26T00:37:44.294Z,5.3
2017-12-26T00:54:20.157Z,5.3
2017-12-26T01:10:55.853Z,4.6
2017-12-26T01:27:31.254Z,4.3
2017-12-26T01:44:06.519Z,4.0
2017-12-26T02:00:41.585Z,4.0
2017-12-26T02:17:16.585Z,3.7
2017-12-26T02:33:51.446Z,3.7
2017-12-26T02:50:26.314Z,3.4
2017-12-26T03:07:01.025Z,3.4
2017-12-26T03:23:35.711Z,3.0
2017-12-26T03:40:10.356Z,3.4
2017-12-26T03:56:45.134Z,4.0
2017-12-26T04:13:20.780Z,5.0
2017-12-26T04:29:56.549Z,5.3
2017-12-26T04:46:32.772Z,5.6
2017-12-26T05:03:09.241Z,6.2
2017-12-26T05:19:45.906Z,6.2
2017-12-26T05:36:22.605Z,6.2
2017-12-26T05:52:59.516Z,6.9
2017-12-26T06:09:36.751Z,7.2
2017-12-26T06:26:14.152Z,7.2
2017-12-26T06:42:51.705Z,7.5
2017-12-26T06:59:29.188Z,7.2
2017-12-26T07:16:06.474Z,6.9
2017-12-26T07:32:43.657Z,6.9
2017-12-26T07:49:20.651Z,6.6
2017-12-26T08:05:57.625Z,6.6
2017-12-26T08:22:34.493Z,6.6
2017-12-26T08:55:47.995Z,6.2
2017-12-26T09:12:25.342Z,6.2
2017-12-26T09:29:01.340Z,6.2
2017-12-26T09:45:38.050Z,6.2
2017-12-26T10:02:14.805Z,6.2
2017-12-26T10:18:51.622Z,6.6
2017-12-26T10:35:28.508Z,6.6
2017-12-26T10:52:05.685Z,6.9
2017-12-26T11:08:42.974Z,6.9
2017-12-26T11:25:20.231Z,6.9
2017-12-26T11:41:57.475Z,6.9
2017-12-26T11:58:34.697Z,6.9
2017-12-26T12:15:12.195Z,7.2
2017-12-26T12:31:49.621Z,6.9
2017-12-26T12:48:27.148Z,6.9
2017-12-26T13:05:04.372Z,7.2
2017-12-26T13:21:41.755Z,6.9
2017-12-26T13:38:19.113Z,6.9
2017-12-26T13:54:56.254Z,6.9
2017-12-26T14:11:33.576Z,7.2
2017-12-26T14:28:10.891Z,6.9
2017-12-26T14:44:48.011Z,6.9
2017-12-26T15:01:25.085Z,6.6
2017-12-26T15:18:02.294Z,6.6
2017-12-26T15:34:38.892Z,6.6
2017-12-26T15:51:15.699Z,6.2
2017-12-26T16:07:52.204Z,5.9
2017-12-26T16:24:28.958Z,6.2
2017-12-26T16:41:05.752Z,6.6
2017-12-26T16:57:42.860Z,6.2
2017-12-26T17:14:19.698Z,6.2
2017-12-26T17:30:55.898Z,5.9
2017-12-26T17:47:32.189Z,5.6
2017-12-26T18:04:08.584Z,5.6
2017-12-26T18:20:44.867Z,5.6
2017-12-26T18:37:20.981Z,5.3
2017-12-26T18:53:57.233Z,5.3
2017-12-26T19:10:33.417Z,5.9
2017-12-26T19:27:09.863Z,5.9
2017-12-26T19:43:46.148Z,5.6
2017-12-26T20:00:22.699Z,5.9
2017-12-26T20:16:59.203Z,5.9
2017-12-26T20:50:12.096Z,5.3
2017-12-26T21:06:48.118Z,5.0
2017-12-26T21:23:23.959Z,5.0
2017-12-26T21:39:59.626Z,4.6
2017-12-26T21:56:35.191Z,4.3
2017-12-26T22:13:10.718Z,4.3
2017-12-26T22:29:46.286Z,4.3
2017-12-26T22:46:21.574Z,4.3
2017-12-26T23:02:56.966Z,4.3
2017-12-26T23:19:32.314Z,4.0
2017-12-26T23:36:07.722Z,4.3
2017-12-26T23:52:43.100Z,4.3
